Time;durP1;ratioP1;P1;durP2;ratioP2;P2;SDS_P1;SDS_P2;PMS_P1;PMS_P2;Temp;Humidity;BMP_temperature;BMP_pressure;BME280_temperature;BME280_humidity;BME280_pressure;Samples;Min_cycle;Max_cycle;Signal;HPM_P1;HPM_P2
2023/12/19 00:00:49;;;;;;;13.57;6.77;;;6.70;99.90;;;;;;5109238;28;20429;-59
2023/12/19 00:03:16;;;;;;;14.90;7.63;;;6.70;99.90;;;;;;5108596;28;20456;-63
2023/12/19 00:05:43;;;;;;;7.60;5.27;;;6.70;99.90;;;;;;5099531;28;20560;-62
2023/12/19 00:08:11;;;;;;;21.40;11.23;;;6.70;99.90;;;;;;5099563;28;20477;-61
2023/12/19 00:10:38;;;;;;;6.87;5.00;;;6.70;99.90;;;;;;5099692;28;20482;-60
2023/12/19 00:13:06;;;;;;;7.17;3.87;;;6.70;99.90;;;;;;5099497;28;21001;-62
2023/12/19 00:15:33;;;;;;;6.07;4.20;;;6.70;99.90;;;;;;5102026;28;20441;-62
2023/12/19 00:17:59;;;;;;;6.07;4.23;;;6.70;99.90;;;;;;5099116;28;20826;-61
2023/12/19 00:20:26;;;;;;;6.80;4.67;;;6.70;99.90;;;;;;5107342;28;20460;-60
2023/12/19 00:22:55;;;;;;;8.53;5.03;;;6.80;99.90;;;;;;5119690;28;20505;-59
2023/12/19 00:25:23;;;;;;;8.30;4.80;;;6.80;99.90;;;;;;5126721;28;20471;-61
2023/12/19 00:27:50;;;;;;;6.83;4.97;;;6.80;99.90;;;;;;5128375;28;20471;-61
2023/12/19 00:30:17;;;;;;;8.23;4.40;;;6.80;99.90;;;;;;5127390;28;20475;-62
2023/12/19 00:32:44;;;;;;;6.97;4.50;;;6.80;99.90;;;;;;5119570;28;20777;-63
2023/12/19 00:35:12;;;;;;;5.70;4.03;;;6.80;99.90;;;;;;5124566;28;20535;-63
2023/12/19 00:37:39;;;;;;;6.07;4.13;;;6.80;99.90;;;;;;5126808;28;20440;-61
2023/12/19 00:40:07;;;;;;;9.30;4.00;;;6.80;99.90;;;;;;5127307;28;20472;-61
2023/12/19 00:42:35;;;;;;;4.67;3.90;;;6.80;99.90;;;;;;5128492;28;20749;-62
2023/12/19 00:45:03;;;;;;;4.67;4.10;;;6.80;99.90;;;;;;5127000;28;20484;-61
2023/12/19 00:47:30;;;;;;;9.60;4.13;;;6.80;99.90;;;;;;5129959;28;20485;-60
2023/12/19 00:49:57;;;;;;;7.00;4.60;;;6.80;99.90;;;;;;5133709;28;20469;-61
2023/12/19 00:52:27;;;;;;;8.67;4.43;;;6.80;99.90;;;;;;5135012;28;20464;-60
2023/12/19 00:54:54;;;;;;;7.00;4.07;;;6.90;99.90;;;;;;5134005;28;20501;-59
2023/12/19 00:57:21;;;;;;;6.90;3.53;;;6.90;99.90;;;;;;5132486;28;20476;-61
2023/12/19 00:59:51;;;;;;;6.47;3.87;;;6.90;99.90;;;;;;5132280;28;20488;-60
2023/12/19 01:02:19;;;;;;;6.10;3.63;;;6.80;99.90;;;;;;5132724;28;20492;-60
2023/12/19 01:04:46;;;;;;;5.70;3.90;;;6.80;99.90;;;;;;5132376;28;20937;-59
2023/12/19 01:07:13;;;;;;;4.20;3.13;;;6.80;99.90;;;;;;5131813;28;20479;-60
2023/12/19 01:09:40;;;;;;;8.10;3.57;;;6.80;99.90;;;;;;5131188;28;20496;-61
2023/12/19 01:12:07;;;;;;;4.63;3.40;;;6.90;99.90;;;;;;5132729;28;20495;-61
2023/12/19 01:14:34;;;;;;;5.77;3.50;;;6.90;99.90;;;;;;5131736;27;20480;-61
2023/12/19 01:17:02;;;;;;;4.47;3.43;;;7.00;99.90;;;;;;5131187;28;20477;-59
2023/12/19 01:19:29;;;;;;;4.83;4.07;;;7.00;99.90;;;;;;5130748;28;20447;-61
2023/12/19 01:21:56;;;;;;;5.73;3.57;;;7.00;99.90;;;;;;5130421;28;20479;-60
2023/12/19 01:24:23;;;;;;;5.80;3.60;;;7.10;99.90;;;;;;5132196;28;20540;-61
2023/12/19 01:26:51;;;;;;;3.87;3.13;;;7.10;99.90;;;;;;5131927;28;20815;-60
2023/12/19 01:29:18;;;;;;;8.60;3.93;;;7.10;99.90;;;;;;5131821;28;20480;-56
2023/12/19 01:31:45;;;;;;;7.13;3.40;;;7.20;99.90;;;;;;5131755;28;20437;-60
2023/12/19 01:34:13;;;;;;;3.80;3.13;;;7.20;99.90;;;;;;5133289;28;20451;-61
2023/12/19 01:36:41;;;;;;;4.90;3.97;;;7.20;99.90;;;;;;5137422;28;20464;-61
2023/12/19 01:39:08;;;;;;;4.43;3.17;;;7.20;99.90;;;;;;5138814;28;20441;-59
2023/12/19 01:41:35;;;;;;;5.03;3.60;;;7.10;99.90;;;;;;5138782;28;20499;-60
2023/12/19 01:44:02;;;;;;;6.23;3.90;;;7.10;99.90;;;;;;5137881;28;20468;-61
2023/12/19 01:46:29;;;;;;;7.87;4.07;;;7.10;99.90;;;;;;5137461;28;20452;-58
2023/12/19 01:48:57;;;;;;;4.50;3.70;;;7.20;99.90;;;;;;5124958;27;20476;-57
2023/12/19 01:51:25;;;;;;;7.07;3.13;;;7.20;99.90;;;;;;5116510;28;20437;-58
2023/12/19 01:53:53;;;;;;;5.50;3.50;;;7.20;99.90;;;;;;5114606;28;20458;-60
2023/12/19 01:56:23;;;;;;;4.93;3.27;;;7.20;99.90;;;;;;5109987;28;20438;-60
2023/12/19 01:58:50;;;;;;;4.37;3.17;;;7.20;99.90;;;;;;5110599;28;20947;-60
2023/12/19 02:01:18;;;;;;;5.70;3.63;;;7.10;99.90;;;;;;5110070;28;20453;-62
2023/12/19 02:03:47;;;;;;;6.30;3.10;;;7.20;99.90;;;;;;5110568;28;20448;-60
2023/12/19 02:06:14;;;;;;;5.60;3.90;;;7.20;99.90;;;;;;5110204;28;20525;-58
2023/12/19 02:08:42;;;;;;;5.47;3.87;;;7.20;99.90;;;;;;5109620;28;20477;-61
2023/12/19 02:11:10;;;;;;;4.17;3.30;;;7.20;99.90;;;;;;5108831;28;20945;-62
2023/12/19 02:13:38;;;;;;;5.60;3.67;;;7.20;99.90;;;;;;5108566;28;20453;-62
2023/12/19 02:16:06;;;;;;;5.90;3.50;;;7.20;99.90;;;;;;5107207;28;20453;-61
2023/12/19 02:18:32;;;;;;;5.07;3.80;;;7.30;99.90;;;;;;5107166;28;20468;-60
2023/12/19 02:21:02;;;;;;;4.30;2.90;;;7.30;99.90;;;;;;5114262;28;20433;-57
2023/12/19 02:23:30;;;;;;;5.00;3.67;;;7.30;99.90;;;;;;5116440;28;20426;-61
2023/12/19 02:25:57;;;;;;;5.60;3.70;;;7.30;99.90;;;;;;5116592;28;20476;-57
2023/12/19 02:28:25;;;;;;;5.70;2.93;;;7.30;99.90;;;;;;5116564;28;20457;-60
2023/12/19 02:30:51;;;;;;;4.87;3.57;;;7.40;99.90;;;;;;5117377;28;20437;-59
2023/12/19 02:33:18;;;;;;;12.40;3.27;;;7.40;99.90;;;;;;5116573;28;20485;-61
2023/12/19 02:35:45;;;;;;;4.33;3.77;;;7.40;99.90;;;;;;5116600;28;20474;-62
2023/12/19 02:38:12;;;;;;;8.20;2.90;;;7.40;99.90;;;;;;5116730;28;20430;-60
2023/12/19 02:40:41;;;;;;;6.20;3.50;;;7.40;99.90;;;;;;5116985;28;20456;-58
2023/12/19 02:43:08;;;;;;;5.13;3.03;;;7.40;99.90;;;;;;5117420;28;20445;-59
2023/12/19 02:45:35;;;;;;;4.00;3.20;;;7.40;99.90;;;;;;5116505;28;20454;-60
2023/12/19 02:48:04;;;;;;;4.87;3.37;;;7.40;99.90;;;;;;5116559;28;20472;-59
2023/12/19 02:50:31;;;;;;;7.23;3.87;;;7.40;99.90;;;;;;5114680;28;20477;-60
2023/12/19 02:52:58;;;;;;;10.60;4.80;;;7.30;99.90;;;;;;5109878;28;20480;-62
2023/12/19 02:55:25;;;;;;;6.43;4.17;;;7.40;99.90;;;;;;5108865;28;20480;-60
2023/12/19 02:57:53;;;;;;;6.00;4.23;;;7.40;99.90;;;;;;5108996;28;20437;-62
2023/12/19 03:00:20;;;;;;;6.87;3.47;;;7.40;99.90;;;;;;5109025;28;20446;-61
2023/12/19 03:02:49;;;;;;;6.90;4.00;;;7.40;99.90;;;;;;5109232;28;20532;-61
2023/12/19 03:05:15;;;;;;;5.27;3.83;;;7.40;99.90;;;;;;5108609;28;20442;-61
2023/12/19 03:07:42;;;;;;;12.57;4.60;;;7.40;99.90;;;;;;5108996;28;20446;-60
2023/12/19 03:10:10;;;;;;;7.93;4.63;;;7.40;99.90;;;;;;5107714;28;20839;-57
2023/12/19 03:12:39;;;;;;;4.70;3.60;;;7.50;99.90;;;;;;5100019;28;20477;-60
2023/12/19 03:15:08;;;;;;;6.50;4.13;;;7.50;99.90;;;;;;5100082;28;20441;-62
2023/12/19 03:17:35;;;;;;;7.73;5.13;;;7.50;99.90;;;;;;5099331;28;20464;-61
2023/12/19 03:20:02;;;;;;;5.00;3.77;;;7.50;99.90;;;;;;5097360;28;20445;-59
2023/12/19 03:22:29;;;;;;;5.83;4.23;;;7.60;99.90;;;;;;5097238;28;20491;-62
2023/12/19 03:24:57;;;;;;;6.73;4.03;;;7.50;99.90;;;;;;5097143;28;20464;-61
2023/12/19 03:27:24;;;;;;;5.27;3.87;;;7.60;99.90;;;;;;5097584;28;20964;-60
2023/12/19 03:29:51;;;;;;;6.70;4.60;;;7.60;99.90;;;;;;5099571;28;20473;-58
2023/12/19 03:32:22;;;;;;;4.63;3.43;;;7.60;99.90;;;;;;5099930;28;20487;-60
2023/12/19 03:34:49;;;;;;;5.53;4.10;;;7.60;99.90;;;;;;5100022;28;20453;-61
2023/12/19 03:37:16;;;;;;;6.93;4.30;;;7.60;99.90;;;;;;5099293;28;20452;-61
2023/12/19 03:39:42;;;;;;;5.47;3.90;;;7.60;99.90;;;;;;5099904;28;20911;-59
2023/12/19 03:42:12;;;;;;;6.30;4.17;;;7.60;99.90;;;;;;5098456;28;20441;-60
2023/12/19 03:44:41;;;;;;;8.00;4.90;;;7.70;99.90;;;;;;5102519;28;20480;-61
2023/12/19 03:47:08;;;;;;;5.90;4.30;;;7.70;99.90;;;;;;5106214;28;20445;-62
2023/12/19 03:49:36;;;;;;;7.77;4.17;;;7.80;99.90;;;;;;5105894;28;20500;-60
2023/12/19 03:52:03;;;;;;;6.07;4.20;;;7.80;99.90;;;;;;5105702;28;20465;-61
2023/12/19 03:54:30;;;;;;;6.20;3.77;;;7.80;99.90;;;;;;5106448;28;20438;-60
2023/12/19 03:57:00;;;;;;;5.80;4.23;;;7.90;99.90;;;;;;5106169;28;20484;-61
2023/12/19 03:59:27;;;;;;;6.70;5.53;;;7.90;99.90;;;;;;5106207;28;20468;-59
2023/12/19 04:01:55;;;;;;;5.37;3.93;;;7.90;99.90;;;;;;5106507;28;20430;-62
2023/12/19 04:04:22;;;;;;;5.87;4.03;;;7.80;99.90;;;;;;5105965;28;20463;-60
2023/12/19 04:06:50;;;;;;;9.43;5.10;;;7.90;99.90;;;;;;5106808;28;20970;-61
2023/12/19 04:09:17;;;;;;;7.43;5.43;;;7.90;99.90;;;;;;5107568;28;20520;-60
2023/12/19 04:11:47;;;;;;;5.40;4.40;;;7.90;99.90;;;;;;5107522;28;20461;-60
2023/12/19 04:14:14;;;;;;;6.07;4.97;;;7.90;99.90;;;;;;5108631;28;20477;-60
2023/12/19 04:16:41;;;;;;;6.97;4.57;;;7.90;99.90;;;;;;5109029;28;20449;-61
2023/12/19 04:19:07;;;;;;;6.37;4.60;;;7.90;99.90;;;;;;5107468;28;20444;-62
2023/12/19 04:21:37;;;;;;;6.50;4.20;;;8.00;99.90;;;;;;5111424;28;20526;-59
2023/12/19 04:24:09;;;;;;;6.40;4.70;;;8.00;99.90;;;;;;5114522;28;20523;-60
2023/12/19 04:26:38;;;;;;;9.87;6.03;;;8.00;99.90;;;;;;5114601;28;20429;-60
2023/12/19 04:29:05;;;;;;;6.60;4.73;;;8.00;99.90;;;;;;5109884;28;20484;-59
2023/12/19 04:31:32;;;;;;;8.57;5.10;;;8.00;99.90;;;;;;5109844;28;20481;-61
2023/12/19 04:33:59;;;;;;;5.97;4.00;;;7.90;99.90;;;;;;5111045;28;20465;-60
2023/12/19 04:36:26;;;;;;;7.67;5.13;;;8.00;99.90;;;;;;5117915;28;20469;-60
2023/12/19 04:38:53;;;;;;;7.80;4.90;;;8.00;99.90;;;;;;5119983;28;20429;-58
2023/12/19 04:41:28;;;;;;;7.13;5.50;;;8.00;99.90;;;;;;5119589;28;20480;-61
2023/12/19 04:43:55;;;;;;;6.77;4.70;;;8.10;99.90;;;;;;5119741;28;20413;-61
2023/12/19 04:46:22;;;;;;;7.27;5.00;;;8.10;99.90;;;;;;5120362;28;20410;-57
2023/12/19 04:48:49;;;;;;;6.03;4.83;;;8.20;99.90;;;;;;5118403;28;20444;-61
2023/12/19 04:51:19;;;;;;;6.70;5.50;;;8.10;99.90;;;;;;5113202;28;20489;-61
2023/12/19 04:53:49;;;;;;;8.67;4.90;;;8.10;99.90;;;;;;5109628;28;20457;-58
2023/12/19 04:56:16;;;;;;;9.70;5.03;;;8.10;99.90;;;;;;5110185;28;20475;-61
2023/12/19 04:58:46;;;;;;;7.47;4.73;;;8.20;99.90;;;;;;5105059;28;20476;-61
2023/12/19 05:01:13;;;;;;;6.80;4.83;;;8.20;99.90;;;;;;5104428;28;20469;-61
2023/12/19 05:03:41;;;;;;;7.30;5.20;;;8.20;99.90;;;;;;5106759;28;20504;-62
2023/12/19 05:06:08;;;;;;;7.97;5.33;;;8.20;99.90;;;;;;5102875;28;20831;-62
2023/12/19 05:08:35;;;;;;;6.43;4.60;;;8.20;99.90;;;;;;5103212;28;20459;-61
2023/12/19 05:11:02;;;;;;;9.40;5.63;;;8.20;99.90;;;;;;5098270;28;20570;-60
2023/12/19 05:13:29;;;;;;;6.70;4.83;;;8.20;99.90;;;;;;5097411;28;20517;-62
2023/12/19 05:15:57;;;;;;;7.60;4.13;;;8.20;99.90;;;;;;5097533;28;20469;-61
2023/12/19 05:18:24;;;;;;;4.30;3.63;;;8.20;99.90;;;;;;5096937;28;20465;-60
2023/12/19 05:20:51;;;;;;;6.27;4.40;;;8.20;99.90;;;;;;5097424;28;20422;-60
2023/12/19 05:23:18;;;;;;;7.70;4.57;;;8.20;99.90;;;;;;5097185;28;20536;-60
2023/12/19 05:25:44;;;;;;;6.83;4.43;;;8.20;99.90;;;;;;5096924;28;20554;-60
2023/12/19 05:28:11;;;;;;;6.13;3.63;;;8.10;99.90;;;;;;5096797;28;20468;-62
2023/12/19 05:30:38;;;;;;;5.30;3.87;;;8.10;99.90;;;;;;5096858;28;20478;-61
2023/12/19 05:33:07;;;;;;;5.87;4.10;;;8.10;99.90;;;;;;5096726;28;20540;-59
2023/12/19 05:35:34;;;;;;;9.33;4.60;;;8.10;99.90;;;;;;5096829;28;20438;-62
2023/12/19 05:38:01;;;;;;;6.03;4.27;;;8.10;99.90;;;;;;5096326;28;20488;-62
2023/12/19 05:40:28;;;;;;;7.10;4.13;;;8.10;99.90;;;;;;5096724;28;20472;-61
2023/12/19 05:42:57;;;;;;;4.27;3.40;;;8.00;99.90;;;;;;5096511;28;20914;-59
2023/12/19 05:45:25;;;;;;;6.30;4.00;;;8.00;99.90;;;;;;5100026;28;20457;-61
2023/12/19 05:47:51;;;;;;;8.00;4.00;;;8.00;99.90;;;;;;5103117;28;20831;-61
2023/12/19 05:50:20;;;;;;;7.03;4.17;;;8.00;99.90;;;;;;5104702;28;20547;-61
2023/12/19 05:52:46;;;;;;;9.70;3.60;;;8.00;99.90;;;;;;5104103;28;20430;-59
2023/12/19 05:55:13;;;;;;;6.77;4.10;;;8.10;99.90;;;;;;5106574;28;20772;-61
2023/12/19 05:57:40;;;;;;;5.90;3.63;;;8.10;99.90;;;;;;5107535;28;20433;-61
2023/12/19 06:00:08;;;;;;;5.50;4.10;;;8.10;99.90;;;;;;5104519;28;20461;-62
2023/12/19 06:02:35;;;;;;;6.50;4.40;;;8.10;99.90;;;;;;5107100;28;20543;-60
2023/12/19 06:05:07;;;;;;;7.77;3.70;;;8.10;99.90;;;;;;5104592;28;20937;-59
2023/12/19 06:07:35;;;;;;;7.57;4.90;;;8.10;99.90;;;;;;5105718;28;20433;-57
2023/12/19 06:10:02;;;;;;;4.67;3.97;;;8.00;99.90;;;;;;5104643;28;20495;-60
2023/12/19 06:12:29;;;;;;;4.90;3.87;;;8.00;99.90;;;;;;5108857;28;20452;-62
2023/12/19 06:14:56;;;;;;;5.97;4.17;;;8.00;99.90;;;;;;5106751;28;20523;-60
2023/12/19 06:17:23;;;;;;;5.73;3.97;;;8.00;99.90;;;;;;5107634;28;20450;-60
2023/12/19 06:19:50;;;;;;;7.83;4.20;;;8.00;99.90;;;;;;5106031;28;20993;-61
2023/12/19 06:22:17;;;;;;;6.33;3.33;;;8.00;99.90;;;;;;5106435;28;20611;-61
2023/12/19 06:24:45;;;;;;;5.37;4.03;;;8.00;99.90;;;;;;5106398;28;20516;-61
2023/12/19 06:27:15;;;;;;;6.70;4.10;;;7.90;99.90;;;;;;5104119;28;20545;-61
2023/12/19 06:29:42;;;;;;;9.80;4.00;;;8.00;99.90;;;;;;5101243;28;20448;-59
2023/12/19 06:32:10;;;;;;;6.57;4.23;;;8.00;99.90;;;;;;5098295;28;20465;-61
2023/12/19 06:34:37;;;;;;;6.20;4.83;;;7.90;99.90;;;;;;5097048;28;20853;-63
2023/12/19 06:37:04;;;;;;;4.87;4.20;;;8.00;99.90;;;;;;5100820;28;20466;-59
2023/12/19 06:39:31;;;;;;;6.57;4.20;;;8.00;99.90;;;;;;5103344;28;20438;-59
2023/12/19 06:41:59;;;;;;;6.90;3.70;;;8.00;99.90;;;;;;5110528;28;20435;-61
2023/12/19 06:44:26;;;;;;;5.10;4.37;;;8.00;99.90;;;;;;5101263;28;20750;-59
2023/12/19 06:46:53;;;;;;;6.70;3.97;;;8.00;99.90;;;;;;5096672;28;20529;-60
2023/12/19 06:49:20;;;;;;;5.10;3.83;;;8.00;99.90;;;;;;5103894;28;20517;-61
2023/12/19 06:51:46;;;;;;;6.73;4.00;;;8.00;99.90;;;;;;5102811;28;20525;-60
2023/12/19 06:54:14;;;;;;;6.30;4.80;;;7.90;99.90;;;;;;5111900;28;20473;-61
2023/12/19 06:56:41;;;;;;;4.50;3.70;;;8.00;99.90;;;;;;5112955;28;20430;-60
2023/12/19 06:59:09;;;;;;;8.10;4.40;;;7.90;99.90;;;;;;5110303;28;20485;-61
2023/12/19 07:01:36;;;;;;;6.30;4.43;;;7.90;99.90;;;;;;5103512;28;20517;-61
2023/12/19 07:04:03;;;;;;;6.93;4.37;;;8.00;99.90;;;;;;5111690;28;20847;-60
2023/12/19 07:06:30;;;;;;;6.30;4.13;;;8.00;99.90;;;;;;5103615;28;20496;-63
2023/12/19 07:08:57;;;;;;;4.80;3.90;;;8.00;99.90;;;;;;5101121;28;20798;-61
2023/12/19 07:11:25;;;;;;;6.70;5.30;;;8.00;99.90;;;;;;5100709;28;20549;-62
2023/12/19 07:13:52;;;;;;;12.70;5.73;;;8.00;99.90;;;;;;5096773;28;20559;-60
2023/12/19 07:16:21;;;;;;;8.53;6.00;;;8.00;99.90;;;;;;5097315;28;20989;-61
2023/12/19 07:18:51;;;;;;;8.70;6.00;;;8.10;99.90;;;;;;5092089;28;20458;-60
2023/12/19 07:21:22;;;;;;;8.07;6.00;;;8.00;99.90;;;;;;5088191;28;20458;-61
2023/12/19 07:23:49;;;;;;;6.17;4.30;;;8.00;99.90;;;;;;5078717;28;20466;-61
2023/12/19 07:26:31;;;;;;;11.20;5.30;;;8.00;99.90;;;;;;5100724;28;20458;-60
2023/12/19 07:28:59;;;;;;;7.20;4.83;;;8.00;99.90;;;;;;5099651;28;20765;-62
2023/12/19 07:31:28;;;;;;;6.63;5.33;;;8.00;99.90;;;;;;5099705;28;20484;-61
2023/12/19 07:33:57;;;;;;;8.97;5.20;;;8.00;99.90;;;;;;5100030;28;20461;-61
2023/12/19 07:36:24;;;;;;;8.03;4.87;;;8.00;99.90;;;;;;5098303;28;20440;-61
2023/12/19 07:38:51;;;;;;;13.60;4.83;;;8.00;99.90;;;;;;5122488;28;20457;-57
2023/12/19 07:41:19;;;;;;;7.17;4.80;;;8.00;99.90;;;;;;5119162;28;20429;-58
2023/12/19 07:43:46;;;;;;;7.00;4.50;;;8.00;99.90;;;;;;5118800;28;20437;-59
2023/12/19 07:46:14;;;;;;;6.37;4.37;;;8.00;99.90;;;;;;5119771;28;20484;-60
2023/12/19 07:48:43;;;;;;;7.20;4.43;;;8.00;99.90;;;;;;5115223;28;20438;-57
2023/12/19 07:51:15;;;;;;;7.77;5.53;;;7.90;99.90;;;;;;5118135;28;20469;-60
2023/12/19 07:53:42;;;;;;;6.70;4.80;;;7.90;99.90;;;;;;5115684;28;20436;-61
2023/12/19 07:56:12;;;;;;;9.73;7.10;;;7.90;99.90;;;;;;5114201;28;20440;-60
2023/12/19 07:58:42;;;;;;;11.17;6.23;;;8.00;99.90;;;;;;5135005;28;20472;-61
2023/12/19 08:01:13;;;;;;;13.00;6.90;;;8.00;99.90;;;;;;5129852;28;20479;-60
2023/12/19 08:03:41;;;;;;;8.37;4.80;;;8.00;99.90;;;;;;5118830;28;20429;-59
2023/12/19 08:06:09;;;;;;;5.70;4.63;;;7.90;99.90;;;;;;5122219;28;20437;-60
2023/12/19 08:08:37;;;;;;;9.77;5.13;;;7.90;99.90;;;;;;5117029;28;20429;-57
2023/12/19 08:11:05;;;;;;;12.43;6.00;;;7.90;99.90;;;;;;5118373;28;20469;-59
2023/12/19 08:13:34;;;;;;;8.23;5.30;;;7.90;99.90;;;;;;5115403;28;20438;-60
2023/12/19 08:16:07;;;;;;;8.90;4.80;;;7.90;99.90;;;;;;5117827;28;20458;-58
2023/12/19 08:18:34;;;;;;;10.50;6.20;;;7.90;99.90;;;;;;5117268;28;20441;-58
2023/12/19 08:21:03;;;;;;;8.63;6.20;;;7.80;99.90;;;;;;5119498;28;20444;-60
2023/12/19 08:23:34;;;;;;;9.50;6.13;;;7.80;99.90;;;;;;5118815;28;20433;-59
2023/12/19 08:26:02;;;;;;;9.37;5.60;;;7.80;99.90;;;;;;5118675;28;20449;-58
2023/12/19 08:28:34;;;;;;;12.50;6.03;;;7.80;99.90;;;;;;5118357;28;20484;-60
2023/12/19 08:31:03;;;;;;;8.20;4.73;;;7.90;99.90;;;;;;5114158;28;20457;-61
2023/12/19 08:33:30;;;;;;;11.33;5.27;;;7.90;99.90;;;;;;5117176;28;20472;-60
2023/12/19 08:35:57;;;;;;;9.50;5.20;;;7.90;99.90;;;;;;5118948;28;20457;-60
2023/12/19 08:38:23;;;;;;;7.60;4.67;;;7.90;99.90;;;;;;5119433;28;20441;-60
2023/12/19 08:40:52;;;;;;;7.27;4.40;;;7.90;99.90;;;;;;5110186;28;20446;-60
2023/12/19 08:43:20;;;;;;;7.67;5.07;;;7.80;99.90;;;;;;5108836;28;20462;-61
2023/12/19 08:45:48;;;;;;;6.73;5.33;;;7.70;99.90;;;;;;5104451;28;20548;-58
2023/12/19 08:48:14;;;;;;;11.87;7.07;;;7.70;99.90;;;;;;5110324;28;20482;-60
2023/12/19 08:50:41;;;;;;;9.40;5.83;;;7.60;99.90;;;;;;5102718;28;20511;-61
2023/12/19 08:53:08;;;;;;;9.70;6.20;;;7.60;99.90;;;;;;5089272;28;20493;-57
2023/12/19 08:55:35;;;;;;;7.57;6.57;;;7.60;99.90;;;;;;5082426;28;20465;-60
2023/12/19 08:58:03;;;;;;;9.27;6.27;;;7.60;99.90;;;;;;5080278;28;20460;-61
2023/12/19 09:00:31;;;;;;;21.77;6.73;;;7.60;99.90;;;;;;5083841;28;20465;-59
2023/12/19 09:02:57;;;;;;;9.83;5.90;;;7.60;99.90;;;;;;5084048;28;20979;-60
2023/12/19 09:05:24;;;;;;;8.50;5.13;;;7.60;99.90;;;;;;5087029;28;20504;-61
2023/12/19 09:07:51;;;;;;;15.33;5.63;;;7.60;99.90;;;;;;5085701;28;20543;-59
2023/12/19 09:10:18;;;;;;;10.37;5.70;;;7.60;99.90;;;;;;5098514;28;20526;-61
2023/12/19 09:12:45;;;;;;;8.93;5.70;;;7.60;99.90;;;;;;5093183;28;20793;-61
2023/12/19 09:15:13;;;;;;;9.40;6.47;;;7.60;99.90;;;;;;5105813;28;20437;-60
2023/12/19 09:17:41;;;;;;;8.70;5.27;;;7.60;99.90;;;;;;5106656;28;20487;-58
2023/12/19 09:20:11;;;;;;;9.03;5.43;;;7.60;99.90;;;;;;5109044;28;20454;-60
2023/12/19 09:22:40;;;;;;;7.00;5.13;;;7.60;99.90;;;;;;5101142;28;20445;-59
2023/12/19 09:25:13;;;;;;;13.57;6.50;;;7.60;99.90;;;;;;5098270;28;20497;-59
2023/12/19 09:27:41;;;;;;;8.40;5.10;;;7.60;99.90;;;;;;5091097;28;20460;-59
2023/12/19 09:30:09;;;;;;;8.63;5.83;;;7.70;99.90;;;;;;5094045;28;20572;-62
2023/12/19 09:32:39;;;;;;;10.20;4.43;;;7.70;99.90;;;;;;5092619;28;20515;-61
2023/12/19 09:35:07;;;;;;;8.93;6.10;;;7.70;99.90;;;;;;5087062;28;20449;-60
2023/12/19 09:37:34;;;;;;;9.27;5.53;;;7.70;99.90;;;;;;5083647;28;20543;-61
2023/12/19 09:40:02;;;;;;;8.40;5.23;;;7.80;99.90;;;;;;5085488;28;20537;-60
2023/12/19 09:42:29;;;;;;;17.93;6.30;;;7.80;99.90;;;;;;5084737;28;20560;-61
2023/12/19 09:44:56;;;;;;;8.17;5.30;;;7.80;99.90;;;;;;5083537;28;20466;-61
2023/12/19 09:47:24;;;;;;;7.30;5.10;;;7.90;99.90;;;;;;5082134;28;20521;-61
2023/12/19 09:49:57;;;;;;;7.73;5.47;;;7.80;99.90;;;;;;5084826;28;21005;-62
2023/12/19 09:52:25;;;;;;;11.73;6.53;;;7.70;99.90;;;;;;5083887;28;20547;-59
2023/12/19 09:54:53;;;;;;;9.67;5.80;;;7.60;99.90;;;;;;5083799;28;20540;-61
2023/12/19 09:57:23;;;;;;;8.47;5.90;;;7.60;99.90;;;;;;5083960;28;20545;-59
2023/12/19 09:59:52;;;;;;;10.60;6.00;;;7.50;99.90;;;;;;5086751;28;20526;-60
2023/12/19 10:02:20;;;;;;;8.30;6.27;;;7.50;99.90;;;;;;5088545;28;20532;-61
2023/12/19 10:04:47;;;;;;;7.87;5.53;;;7.50;99.90;;;;;;5083705;28;20488;-61
2023/12/19 10:07:15;;;;;;;8.27;5.40;;;7.40;99.90;;;;;;5085028;28;20473;-61
2023/12/19 10:09:54;;;;;;;9.67;6.60;;;7.40;99.90;;;;;;5081383;28;20557;-61
2023/12/19 10:12:22;;;;;;;31.47;15.93;;;7.30;99.90;;;;;;5082297;28;20466;-60
2023/12/19 10:14:49;;;;;;;13.17;8.23;;;7.40;99.90;;;;;;5094448;28;20545;-59
2023/12/19 10:17:18;;;;;;;13.10;7.50;;;7.40;99.90;;;;;;5104375;28;20462;-59
2023/12/19 10:19:47;;;;;;;11.07;7.27;;;7.40;99.90;;;;;;5100200;28;20564;-60
2023/12/19 10:22:19;;;;;;;12.10;8.60;;;7.40;99.90;;;;;;5108724;28;20496;-61
2023/12/19 10:24:46;;;;;;;17.43;7.30;;;7.40;99.90;;;;;;5106960;28;20481;-58
2023/12/19 10:27:13;;;;;;;11.37;6.60;;;7.40;99.90;;;;;;5099770;28;20497;-59
2023/12/19 10:29:40;;;;;;;9.80;5.73;;;7.40;99.90;;;;;;5103751;28;20457;-60
2023/12/19 10:32:14;;;;;;;8.80;6.57;;;7.40;99.90;;;;;;5106358;28;20516;-59
2023/12/19 10:34:41;;;;;;;10.63;6.27;;;7.40;99.90;;;;;;5107725;28;20453;-60
2023/12/19 10:37:12;;;;;;;14.60;6.90;;;7.40;99.90;;;;;;5105729;28;20529;-58
2023/12/19 10:39:43;;;;;;;12.13;6.60;;;7.40;99.90;;;;;;5107527;28;20530;-59
2023/12/19 10:42:10;;;;;;;9.57;6.40;;;7.40;99.90;;;;;;5099828;28;20452;-56
2023/12/19 10:44:39;;;;;;;10.60;7.83;;;7.40;99.90;;;;;;5099174;28;20538;-59
2023/12/19 10:47:07;;;;;;;14.43;6.77;;;7.40;99.90;;;;;;5093489;28;20927;-59
2023/12/19 10:49:36;;;;;;;15.10;7.03;;;7.40;99.90;;;;;;5096916;28;20489;-61
2023/12/19 10:52:06;;;;;;;12.20;7.43;;;7.40;99.90;;;;;;5091405;28;20461;-61
2023/12/19 10:54:36;;;;;;;11.50;6.50;;;7.40;99.90;;;;;;5087580;28;20532;-59
2023/12/19 10:57:15;;;;;;;14.53;7.20;;;7.30;99.90;;;;;;5084263;28;20910;-60
2023/12/19 10:59:49;;;;;;;14.60;6.50;;;7.30;99.90;;;;;;5079120;28;20458;-62
2023/12/19 11:02:29;;;;;;;11.13;6.93;;;7.30;99.90;;;;;;5083200;28;20483;-61
2023/12/19 11:05:05;;;;;;;10.70;7.53;;;7.30;99.90;;;;;;5096787;28;20500;-61
2023/12/19 11:07:35;;;;;;;15.07;9.00;;;7.30;99.90;;;;;;5100618;28;20489;-57
2023/12/19 11:10:07;;;;;;;9.40;7.57;;;7.30;99.90;;;;;;5109718;28;20481;-57
2023/12/19 11:12:37;;;;;;;13.10;7.10;;;7.30;99.90;;;;;;5109949;28;20491;-60
2023/12/19 11:15:06;;;;;;;9.90;7.73;;;7.30;99.90;;;;;;5104290;28;20446;-60
2023/12/19 11:17:40;;;;;;;9.40;6.00;;;7.30;99.90;;;;;;5099931;28;20518;-64
2023/12/19 11:20:16;;;;;;;13.10;6.90;;;7.40;99.90;;;;;;5098460;28;20463;-62
2023/12/19 11:22:56;;;;;;;10.43;6.47;;;7.40;99.90;;;;;;5103580;28;20433;-63
2023/12/19 11:25:32;;;;;;;10.83;6.60;;;7.40;99.90;;;;;;5097150;28;20536;-64
2023/12/19 11:28:02;;;;;;;11.80;7.03;;;7.40;99.90;;;;;;5097256;28;20433;-62
2023/12/19 11:30:36;;;;;;;13.57;8.50;;;7.40;99.90;;;;;;5096914;28;20556;-64
2023/12/19 11:33:04;;;;;;;10.50;7.27;;;7.40;99.90;;;;;;5095276;28;20481;-62
2023/12/19 11:35:32;;;;;;;12.17;7.50;;;7.40;99.90;;;;;;5094383;28;20906;-64
2023/12/19 11:38:21;;;;;;;11.30;7.20;;;7.50;99.90;;;;;;5094102;28;20965;-66
2023/12/19 11:40:49;;;;;;;14.17;7.10;;;7.50;99.90;;;;;;5083305;28;20465;-60
2023/12/19 11:43:49;;;;;;;15.13;8.20;;;7.40;99.90;;;;;;5090607;28;20484;-63
2023/12/19 11:46:19;;;;;;;14.17;8.83;;;7.50;99.90;;;;;;5094869;28;20520;-63
2023/12/19 11:48:49;;;;;;;11.20;7.03;;;7.40;99.90;;;;;;5094589;28;20477;-62
2023/12/19 11:51:44;;;;;;;13.27;7.67;;;7.40;99.90;;;;;;5094572;28;20437;-61
2023/12/19 11:54:13;;;;;;;14.63;7.50;;;7.40;99.90;;;;;;5094229;28;20486;-63
2023/12/19 11:56:40;;;;;;;14.47;7.67;;;7.40;99.90;;;;;;5094663;28;20453;-64
2023/12/19 11:59:08;;;;;;;13.33;7.93;;;7.50;99.90;;;;;;5094034;28;20504;-61
2023/12/19 12:01:40;;;;;;;11.00;7.83;;;7.50;99.90;;;;;;5102017;28;20498;-61
2023/12/19 12:04:10;;;;;;;16.60;8.60;;;7.50;99.90;;;;;;5107207;28;20449;-61
2023/12/19 12:06:38;;;;;;;10.37;7.10;;;7.50;99.90;;;;;;5107959;28;20441;-60
2023/12/19 12:09:06;;;;;;;10.80;8.00;;;7.50;99.90;;;;;;5115924;28;20520;-61
2023/12/19 12:11:46;;;;;;;14.20;8.23;;;7.50;99.90;;;;;;5114883;28;20557;-59
2023/12/19 12:14:13;;;;;;;17.07;9.53;;;7.50;99.90;;;;;;5115172;28;20868;-62
2023/12/19 12:16:42;;;;;;;9.67;7.50;;;7.50;99.90;;;;;;5111355;28;20454;-61
2023/12/19 12:19:13;;;;;;;14.47;7.30;;;7.40;99.90;;;;;;5089617;28;20455;-61
2023/12/19 12:21:47;;;;;;;12.80;7.70;;;7.50;99.90;;;;;;5093203;28;20537;-61
2023/12/19 12:24:23;;;;;;;12.33;7.87;;;7.50;99.90;;;;;;5090993;28;20507;-62
2023/12/19 12:26:51;;;;;;;13.70;7.13;;;7.50;99.90;;;;;;5095772;28;20483;-58
2023/12/19 12:29:19;;;;;;;19.30;7.73;;;7.50;99.90;;;;;;5094349;28;20465;-63
2023/12/19 12:31:48;;;;;;;16.53;9.00;;;7.50;99.90;;;;;;5096823;28;20572;-61
2023/12/19 12:34:15;;;;;;;12.70;8.23;;;7.40;99.90;;;;;;5094756;28;20465;-60
2023/12/19 12:36:43;;;;;;;36.53;9.43;;;7.50;99.90;;;;;;5092569;28;20445;-58
2023/12/19 12:39:10;;;;;;;15.23;9.17;;;7.50;99.90;;;;;;5092979;28;20966;-61
2023/12/19 12:41:41;;;;;;;12.33;7.97;;;7.50;99.90;;;;;;5093958;28;20438;-60
2023/12/19 12:44:14;;;;;;;12.97;8.90;;;7.50;99.90;;;;;;5094195;28;20456;-59
2023/12/19 12:46:45;;;;;;;13.23;8.37;;;7.50;99.90;;;;;;5094228;28;20465;-60
2023/12/19 12:49:19;;;;;;;16.33;8.00;;;7.50;99.90;;;;;;5096715;28;20512;-61
2023/12/19 12:51:46;;;;;;;12.57;8.27;;;7.50;99.90;;;;;;5102463;28;20492;-61
2023/12/19 12:54:18;;;;;;;11.67;7.90;;;7.50;99.90;;;;;;5105181;28;20484;-59
2023/12/19 12:56:45;;;;;;;14.23;7.70;;;7.50;99.90;;;;;;5110126;28;20493;-61
2023/12/19 12:59:14;;;;;;;12.20;8.37;;;7.60;99.90;;;;;;5102826;28;20953;-60
2023/12/19 13:01:46;;;;;;;14.03;8.83;;;7.50;99.90;;;;;;5102726;28;20824;-60